createdAt,value
2022-12-11T00:00:45.202Z,1.65
2022-12-11T00:03:47.550Z,1.90
2022-12-11T00:06:50.559Z,1.90
2022-12-11T00:09:52.354Z,1.92
2022-12-11T00:12:54.087Z,1.60
2022-12-11T00:15:57.855Z,1.45
2022-12-11T00:18:59.873Z,1.37
2022-12-11T00:22:01.517Z,1.30
2022-12-11T00:25:03.360Z,2.30
2022-12-11T00:28:05.046Z,2.33
2022-12-11T00:31:08.660Z,3.58
2022-12-11T00:34:11.996Z,1.83
2022-12-11T00:37:13.800Z,2.03
2022-12-11T00:40:15.543Z,1.55
2022-12-11T00:43:17.729Z,1.75
2022-12-11T00:46:19.388Z,1.80
2022-12-11T00:49:21.158Z,1.40
2022-12-11T00:52:22.965Z,1.83
2022-12-11T00:55:25.481Z,2.10
2022-12-11T00:58:27.805Z,2.25
2022-12-11T01:01:29.613Z,2.40
2022-12-11T01:04:31.445Z,2.40
2022-12-11T01:07:33.054Z,2.17
2022-12-11T01:10:35.394Z,2.25
2022-12-11T01:13:38.262Z,2.30
2022-12-11T01:16:40.010Z,2.20
2022-12-11T01:19:41.736Z,2.47
2022-12-11T01:22:43.394Z,1.93
2022-12-11T01:25:45.042Z,2.17
2022-12-11T01:28:51.589Z,2.00
2022-12-11T01:31:53.191Z,2.42
2022-12-11T01:34:54.942Z,2.03
2022-12-11T01:37:56.598Z,2.10
2022-12-11T01:40:58.175Z,2.30
2022-12-11T01:44:04.002Z,2.22
2022-12-11T01:47:05.658Z,2.05
2022-12-11T01:50:10.262Z,1.93
2022-12-11T01:53:16.756Z,1.37
2022-12-11T01:56:19.164Z,1.73
2022-12-11T01:59:24.693Z,1.50
2022-12-11T02:02:29.970Z,1.55
2022-12-11T02:05:31.700Z,1.40
2022-12-11T02:08:33.448Z,1.20
2022-12-11T02:11:47.935Z,1.48
2022-12-11T02:15:02.154Z,1.20
2022-12-11T02:18:36.737Z,1.10
2022-12-11T02:21:43.468Z,1.30
2022-12-11T02:25:03.834Z,1.47
2022-12-11T02:28:11.322Z,1.25
2022-12-11T02:31:20.311Z,1.35
2022-12-11T02:34:32.199Z,0.90
2022-12-11T02:37:37.756Z,1.10
2022-12-11T02:40:42.231Z,1.00
2022-12-11T02:43:45.389Z,0.93
2022-12-11T02:46:47.316Z,0.98
2022-12-11T02:49:51.933Z,1.00
2022-12-11T02:52:56.532Z,1.00
2022-12-11T02:56:06.940Z,1.70
2022-12-11T02:59:21.518Z,1.13
2022-12-11T03:02:24.034Z,1.65
2022-12-11T03:05:27.229Z,1.40
2022-12-11T03:08:28.918Z,2.50
2022-12-11T03:11:30.571Z,2.10
2022-12-11T03:14:32.221Z,1.40
2022-12-11T03:17:40.028Z,2.00
2022-12-11T03:20:50.209Z,1.73
2022-12-11T03:24:12.319Z,1.50
2022-12-11T03:27:26.669Z,1.50
2022-12-11T03:30:28.998Z,1.55
2022-12-11T03:33:36.384Z,1.50
2022-12-11T03:36:39.964Z,1.80
2022-12-11T03:39:49.938Z,1.77
2022-12-11T03:42:53.534Z,1.70
2022-12-11T03:45:56.906Z,1.80
2022-12-11T03:49:03.286Z,1.90
2022-12-11T03:52:06.448Z,1.80
2022-12-11T03:55:10.460Z,2.00
2022-12-11T03:58:12.265Z,1.90
2022-12-11T04:01:13.871Z,3.85
2022-12-11T04:04:15.735Z,5.10
2022-12-11T04:07:17.353Z,5.15
2022-12-11T04:10:18.968Z,5.70
2022-12-11T04:13:20.577Z,6.20
2022-12-11T04:16:22.225Z,5.63
2022-12-11T04:19:43.254Z,5.85
2022-12-11T04:23:10.960Z,6.35
2022-12-11T04:26:16.823Z,5.73
2022-12-11T04:29:18.507Z,5.40
2022-12-11T04:32:20.097Z,5.40
2022-12-11T04:35:22.258Z,5.10
2022-12-11T04:38:24.025Z,4.50
2022-12-11T04:41:25.725Z,5.57
2022-12-11T04:44:27.342Z,5.37
2022-12-11T04:47:28.955Z,5.70
2022-12-11T04:50:30.593Z,5.72
2022-12-11T04:53:32.569Z,4.97
2022-12-11T04:56:34.248Z,5.60
2022-12-11T04:59:37.171Z,5.87
2022-12-11T05:02:40.460Z,5.82
2022-12-11T05:05:51.298Z,5.63
2022-12-11T05:08:53.566Z,5.43
2022-12-11T05:11:55.553Z,6.13
2022-12-11T05:14:57.182Z,5.37
2022-12-11T05:17:58.782Z,6.15
2022-12-11T05:21:02.706Z,5.47
2022-12-11T05:24:04.634Z,5.63
2022-12-11T05:27:06.483Z,6.77
2022-12-11T05:30:10.103Z,6.30
2022-12-11T05:33:11.730Z,6.15
2022-12-11T05:36:19.004Z,5.78
2022-12-11T05:39:21.111Z,5.75
2022-12-11T05:42:27.136Z,6.30
2022-12-11T05:45:30.525Z,5.77
2022-12-11T05:48:32.152Z,5.97
2022-12-11T05:51:34.754Z,6.80
2022-12-11T05:54:36.376Z,5.70
2022-12-11T05:57:38.047Z,7.13
2022-12-11T06:00:41.933Z,6.37
2022-12-11T06:03:43.850Z,6.78
2022-12-11T06:06:45.516Z,5.53
2022-12-11T06:09:47.160Z,6.00
2022-12-11T06:12:48.755Z,5.83
2022-12-11T06:15:50.351Z,6.33
2022-12-11T06:18:55.793Z,5.60
2022-12-11T06:21:59.797Z,5.63
2022-12-11T06:25:01.414Z,5.75
2022-12-11T06:28:03.078Z,6.07
2022-12-11T06:31:05.116Z,6.37
2022-12-11T06:34:06.828Z,5.57
2022-12-11T06:37:08.445Z,6.15
2022-12-11T06:40:11.853Z,6.28
2022-12-11T06:43:13.436Z,7.23
2022-12-11T06:46:17.952Z,6.47
2022-12-11T06:49:19.709Z,6.65
2022-12-11T06:52:25.442Z,6.55
2022-12-11T06:55:27.065Z,6.68
2022-12-11T06:58:28.741Z,6.53
2022-12-11T07:01:31.491Z,6.37
2022-12-11T07:04:33.315Z,6.43
2022-12-11T07:07:34.977Z,7.65
2022-12-11T07:10:38.822Z,6.90
2022-12-11T07:13:42.186Z,6.47
2022-12-11T07:16:43.959Z,7.20
2022-12-11T07:19:45.692Z,7.22
2022-12-11T07:22:47.356Z,8.90
2022-12-11T07:25:49.363Z,7.43
2022-12-11T07:28:51.246Z,7.67
2022-12-11T07:31:52.979Z,8.47
2022-12-11T07:34:54.777Z,8.05
2022-12-11T07:37:56.403Z,7.63
2022-12-11T07:41:05.456Z,8.05
2022-12-11T07:44:07.196Z,7.63
2022-12-11T07:47:08.815Z,7.00
2022-12-11T07:50:10.853Z,7.45
2022-12-11T07:53:12.486Z,7.60
2022-12-11T07:56:15.702Z,8.07
2022-12-11T07:59:17.343Z,7.97
2022-12-11T08:02:18.976Z,7.57
2022-12-11T08:05:20.817Z,7.57
2022-12-11T08:08:22.485Z,8.45
2022-12-11T08:11:24.984Z,7.53
2022-12-11T08:14:26.659Z,10.30
2022-12-11T08:17:31.795Z,8.23
2022-12-11T08:20:39.185Z,12.82
2022-12-11T08:23:41.294Z,8.98
2022-12-11T08:26:42.921Z,8.15
2022-12-11T08:29:45.742Z,7.17
2022-12-11T08:32:47.367Z,7.13
2022-12-11T08:35:49.033Z,6.70
2022-12-11T08:38:51.558Z,6.60
2022-12-11T08:41:53.199Z,5.85
2022-12-11T08:44:54.844Z,5.97
2022-12-11T08:47:58.054Z,6.30
2022-12-11T08:51:04.463Z,7.93
2022-12-11T08:54:06.110Z,8.05
2022-12-11T08:57:07.717Z,8.32
2022-12-11T09:00:12.382Z,6.57
2022-12-11T09:03:14.039Z,6.30
2022-12-11T09:06:18.203Z,6.75
2022-12-11T09:09:19.813Z,6.18
2022-12-11T09:12:21.433Z,6.25
2022-12-11T09:15:23.061Z,7.50
2022-12-11T09:18:24.723Z,6.80
2022-12-11T09:21:29.734Z,7.10
2022-12-11T09:24:31.465Z,6.47
2022-12-11T09:27:34.108Z,6.40
2022-12-11T09:30:37.271Z,6.40
2022-12-11T09:33:39.303Z,5.80
2022-12-11T09:36:42.549Z,5.68
2022-12-11T09:39:44.261Z,6.40
2022-12-11T09:43:06.448Z,8.73
2022-12-11T09:46:12.543Z,8.27
2022-12-11T09:49:27.182Z,6.53
2022-12-11T09:52:48.758Z,6.80
2022-12-11T09:56:20.982Z,10.20
2022-12-11T09:59:44.821Z,14.77
2022-12-11T10:02:55.476Z,9.90
2022-12-11T10:06:18.102Z,9.73
2022-12-11T10:09:28.027Z,8.07
2022-12-11T10:12:45.719Z,7.07
2022-12-11T10:16:02.334Z,10.68
2022-12-11T10:19:04.487Z,7.60
2022-12-11T10:22:14.414Z,6.47
2022-12-11T10:25:31.965Z,8.55
2022-12-11T10:28:35.017Z,7.95
2022-12-11T10:32:12.069Z,7.38
2022-12-11T10:35:38.414Z,8.73
2022-12-11T10:38:45.482Z,11.40
2022-12-11T10:41:49.716Z,21.58
2022-12-11T10:45:03.395Z,13.32
2022-12-11T10:48:10.477Z,11.25
2022-12-11T10:51:12.166Z,11.27
2022-12-11T10:54:31.102Z,16.17
2022-12-11T10:57:36.104Z,13.93
2022-12-11T11:00:41.010Z,8.43
2022-12-11T11:03:55.372Z,8.50
2022-12-11T11:07:12.750Z,8.57
2022-12-11T11:10:17.883Z,8.70
2022-12-11T11:13:22.308Z,8.50
2022-12-11T11:16:25.508Z,8.25
2022-12-11T11:19:31.783Z,7.95
2022-12-11T11:22:34.010Z,8.03
2022-12-11T11:25:35.729Z,9.13
2022-12-11T11:28:49.996Z,8.55
2022-12-11T11:31:51.687Z,7.97
2022-12-11T11:34:53.398Z,8.00
2022-12-11T11:38:19.953Z,8.07
2022-12-11T11:41:29.300Z,8.07
2022-12-11T11:44:37.075Z,6.38
2022-12-11T11:47:50.910Z,6.35
2022-12-11T11:50:53.914Z,8.32
2022-12-11T11:53:59.024Z,8.13
2022-12-11T11:57:10.960Z,6.20
2022-12-11T12:00:16.169Z,6.65
2022-12-11T12:03:20.006Z,7.15
2022-12-11T12:06:30.623Z,8.70
2022-12-11T12:09:48.239Z,8.27
2022-12-11T12:13:30.083Z,7.53
2022-12-11T12:16:52.820Z,8.45
2022-12-11T12:20:11.119Z,8.68
2022-12-11T12:23:12.717Z,8.63
2022-12-11T12:26:36.168Z,8.93
2022-12-11T12:29:53.475Z,9.20
2022-12-11T12:33:01.130Z,10.02
2022-12-11T12:36:21.123Z,12.75
2022-12-11T12:39:38.113Z,10.35
2022-12-11T12:43:11.021Z,11.97
2022-12-11T12:46:27.839Z,9.40
2022-12-11T12:49:42.279Z,6.68
2022-12-11T12:52:44.874Z,10.00
2022-12-11T12:55:48.527Z,12.13
2022-12-11T12:58:50.274Z,10.90
2022-12-11T13:01:57.140Z,7.90
2022-12-11T13:05:05.793Z,8.70
2022-12-11T13:08:08.106Z,9.55
2022-12-11T13:11:12.677Z,10.52
2022-12-11T13:14:15.307Z,11.97
2022-12-11T13:17:22.667Z,13.27
2022-12-11T13:20:30.738Z,12.95
2022-12-11T13:23:34.045Z,10.75
2022-12-11T13:26:35.721Z,10.68
2022-12-11T13:29:42.083Z,13.23
2022-12-11T13:32:58.716Z,10.50
2022-12-11T13:36:15.779Z,8.93
2022-12-11T13:39:25.954Z,8.70
2022-12-11T13:42:36.120Z,11.07
2022-12-11T13:45:44.555Z,7.90
2022-12-11T13:48:55.267Z,8.20
2022-12-11T13:51:59.951Z,7.70
2022-12-11T13:55:01.705Z,8.32
2022-12-11T13:58:03.340Z,7.35
2022-12-11T14:01:05.196Z,7.90
2022-12-11T14:04:14.028Z,7.07
2022-12-11T14:07:20.454Z,5.65
2022-12-11T14:10:32.408Z,5.50
2022-12-11T14:13:37.187Z,5.97
2022-12-11T14:16:39.318Z,7.63
2022-12-11T14:19:47.337Z,6.60
2022-12-11T14:22:49.038Z,8.93
2022-12-11T14:26:17.601Z,7.80
2022-12-11T14:29:30.271Z,6.95
2022-12-11T14:32:36.875Z,7.33
2022-12-11T14:35:42.014Z,8.50
2022-12-11T14:38:47.367Z,8.73
2022-12-11T14:41:57.824Z,7.22
2022-12-11T14:45:20.609Z,7.43
2022-12-11T14:48:28.477Z,7.67
2022-12-11T14:51:35.535Z,10.40
2022-12-11T14:54:42.909Z,9.57
2022-12-11T14:57:48.354Z,9.43
2022-12-11T15:01:00.738Z,8.30
2022-12-11T15:04:02.378Z,9.50
2022-12-11T15:07:19.712Z,8.53
2022-12-11T15:10:31.300Z,7.60
2022-12-11T15:13:35.201Z,11.25
2022-12-11T15:16:40.459Z,10.57
2022-12-11T15:19:52.657Z,9.00
2022-12-11T15:22:57.577Z,7.67
2022-12-11T15:26:01.632Z,8.07
2022-12-11T15:29:32.701Z,7.72
2022-12-11T15:32:34.523Z,7.60
2022-12-11T15:35:38.092Z,7.30
2022-12-11T15:38:42.038Z,7.60
2022-12-11T15:41:43.718Z,8.38
2022-12-11T15:44:45.554Z,7.60
2022-12-11T15:47:48.571Z,7.75
2022-12-11T15:50:50.807Z,13.43
2022-12-11T15:53:52.467Z,27.30
2022-12-11T15:56:55.198Z,30.90
2022-12-11T15:59:58.337Z,31.15
2022-12-11T16:03:00.211Z,25.73
2022-12-11T16:06:02.298Z,26.20
2022-12-11T16:09:05.124Z,26.83
2022-12-11T16:12:07.271Z,26.98
2022-12-11T16:15:10.659Z,28.13
2022-12-11T16:18:16.700Z,27.17
2022-12-11T16:21:21.618Z,29.10
2022-12-11T16:24:23.546Z,29.27
2022-12-11T16:27:25.235Z,24.55
2022-12-11T16:30:29.236Z,23.27
2022-12-11T16:33:30.894Z,22.35
2022-12-11T16:36:32.505Z,21.40
2022-12-11T16:39:37.019Z,21.43
2022-12-11T16:42:38.880Z,23.10
2022-12-11T16:45:41.973Z,21.73
2022-12-11T16:48:47.578Z,20.17
2022-12-11T16:51:49.839Z,19.17
2022-12-11T16:54:51.473Z,19.17
2022-12-11T16:57:53.132Z,18.88
2022-12-11T17:01:02.632Z,17.98
2022-12-11T17:04:04.304Z,21.52
2022-12-11T17:07:06.204Z,22.00
2022-12-11T17:10:08.484Z,18.27
2022-12-11T17:13:10.095Z,18.33
2022-12-11T17:16:16.806Z,16.45
2022-12-11T17:19:19.751Z,14.35
2022-12-11T17:22:21.517Z,11.83
2022-12-11T17:25:23.509Z,10.50
2022-12-11T17:28:25.673Z,9.40
2022-12-11T17:31:27.803Z,10.38
2022-12-11T17:34:36.088Z,9.35
2022-12-11T17:37:39.710Z,9.20
2022-12-11T17:40:44.221Z,9.53
2022-12-11T17:43:45.902Z,9.90
2022-12-11T17:46:47.706Z,10.35
2022-12-11T17:49:49.499Z,9.60
2022-12-11T17:52:51.671Z,10.60
2022-12-11T17:55:54.027Z,9.13
2022-12-11T17:58:55.693Z,12.60
2022-12-11T18:01:57.917Z,12.88
2022-12-11T18:04:59.784Z,12.93
2022-12-11T18:08:02.127Z,12.20
2022-12-11T18:11:09.995Z,15.57
2022-12-11T18:14:16.881Z,14.27
2022-12-11T18:17:18.939Z,13.48
2022-12-11T18:20:24.749Z,14.25
2022-12-11T18:23:26.610Z,12.40
2022-12-11T18:26:29.086Z,11.67
2022-12-11T18:29:30.922Z,11.55
2022-12-11T18:32:32.843Z,11.63
2022-12-11T18:35:34.616Z,11.55
2022-12-11T18:38:38.132Z,12.87
2022-12-11T18:41:40.140Z,15.73
2022-12-11T18:44:44.391Z,12.27
2022-12-11T18:47:47.238Z,10.07
2022-12-11T18:50:51.370Z,11.35
2022-12-11T18:53:53.614Z,9.83
2022-12-11T18:56:55.502Z,10.90
2022-12-11T19:00:02.287Z,10.18
2022-12-11T19:03:05.289Z,11.02
2022-12-11T19:06:13.269Z,13.35
2022-12-11T19:09:16.002Z,12.17
2022-12-11T19:12:18.221Z,12.00
2022-12-11T19:15:23.814Z,11.88
2022-12-11T19:18:26.772Z,13.20
2022-12-11T19:21:28.741Z,12.32
2022-12-11T19:24:30.723Z,11.87
2022-12-11T19:27:32.931Z,11.70
2022-12-11T19:30:35.270Z,12.02
2022-12-11T19:33:37.345Z,12.00
2022-12-11T19:36:40.636Z,11.95
2022-12-11T19:39:42.633Z,13.57
2022-12-11T19:42:44.810Z,14.03
2022-12-11T19:45:48.137Z,14.02
2022-12-11T19:48:53.805Z,13.60
2022-12-11T19:51:55.530Z,13.07
2022-12-11T19:55:01.777Z,13.37
2022-12-11T19:58:04.174Z,13.43
2022-12-11T20:01:07.400Z,12.77
2022-12-11T20:04:13.223Z,14.00
2022-12-11T20:07:14.866Z,15.45
2022-12-11T20:10:18.101Z,12.83
2022-12-11T20:13:21.524Z,12.53
2022-12-11T20:16:45.856Z,12.10
2022-12-11T20:19:45.339Z,13.40
2022-12-11T20:22:47.430Z,17.52
2022-12-11T20:25:50.077Z,21.83
2022-12-11T20:28:54.227Z,15.17
2022-12-11T20:31:55.880Z,15.25
2022-12-11T20:34:58.273Z,14.75
2022-12-11T20:38:00.112Z,13.23
2022-12-11T20:41:02.036Z,15.97
2022-12-11T20:44:03.741Z,14.37
2022-12-11T20:47:06.783Z,13.80
2022-12-11T20:50:11.053Z,14.63
2022-12-11T20:53:13.107Z,15.07
2022-12-11T20:56:18.895Z,15.33
2022-12-11T20:59:20.935Z,15.90
2022-12-11T21:02:23.737Z,16.90
2022-12-11T21:05:25.618Z,20.67
2022-12-11T21:08:27.272Z,16.27
2022-12-11T21:11:29.718Z,14.67
2022-12-11T21:14:32.010Z,13.57
2022-12-11T21:17:34.874Z,13.65
2022-12-11T21:20:36.974Z,15.98
2022-12-11T21:23:39.150Z,14.38
2022-12-11T21:26:40.770Z,15.77
2022-12-11T21:29:42.391Z,13.53
2022-12-11T21:32:44.804Z,14.02
2022-12-11T21:35:54.585Z,14.30
2022-12-11T21:38:58.780Z,13.95
2022-12-11T21:42:01.234Z,12.93
2022-12-11T21:48:25.618Z,17.50
2022-12-11T21:51:35.968Z,13.98
2022-12-11T21:54:39.732Z,13.95
2022-12-11T21:57:41.494Z,11.50
2022-12-11T22:00:46.681Z,10.97
2022-12-11T22:03:50.117Z,11.45
2022-12-11T22:06:51.786Z,10.20
2022-12-11T22:09:53.515Z,10.50
2022-12-11T22:12:55.309Z,10.53
2022-12-11T22:15:56.988Z,9.57
2022-12-11T22:18:58.918Z,9.93
2022-12-11T22:22:00.843Z,9.82
2022-12-11T22:25:03.668Z,10.55
2022-12-11T22:28:05.447Z,9.23
2022-12-11T22:31:13.997Z,9.87
2022-12-11T22:34:15.737Z,8.93
2022-12-11T22:37:17.328Z,9.93
2022-12-11T22:40:19.150Z,8.80
2022-12-11T22:43:21.718Z,9.90
2022-12-11T22:46:27.256Z,8.87
2022-12-11T22:49:29.027Z,9.43
2022-12-11T22:52:31.085Z,9.02
2022-12-11T22:55:33.149Z,8.43
2022-12-11T22:58:35.369Z,8.37
2022-12-11T23:01:37.396Z,8.70
2022-12-11T23:04:39.843Z,9.15
2022-12-11T23:07:41.550Z,8.02
2022-12-11T23:10:43.166Z,10.02
2022-12-11T23:13:45.251Z,10.33
2022-12-11T23:16:47.169Z,10.60
2022-12-11T23:19:49.269Z,10.88
2022-12-11T23:22:51.422Z,11.52
2022-12-11T23:25:53.275Z,11.88
2022-12-11T23:28:56.492Z,11.50
2022-12-11T23:31:58.321Z,11.93
2022-12-11T23:34:59.975Z,12.07
2022-12-11T23:38:01.608Z,12.27
2022-12-11T23:41:04.231Z,11.25
2022-12-11T23:44:06.209Z,11.73
2022-12-11T23:47:07.776Z,11.80
2022-12-11T23:50:10.005Z,12.20
2022-12-11T23:53:12.128Z,12.25
2022-12-11T23:56:17.166Z,12.82
2022-12-11T23:59:18.802Z,13.20
